This is the latest recevied weather packets stored in our database for station/object Waldburg. If no packets are shown the sender has not sent any weather packets the latest 1 day(s).
| Time | Temp. | Humidity | Pressure | Rain* | Wind** | Luminosity | Snow |
|---|---|---|---|---|---|---|---|
| 1836273905 | 15° C | 84% | 1020.1 hPa | 0 mm | 0 m/s | - | - |
| 1778022129 | 9.44° C | 92% | 1007.7 hPa | 0 mm | 2.68 m/s, 282° | - | - |
| 1778020330 | 10° C | 93% | 1008.2 hPa | 0 mm | 0.45 m/s, 221° | - | - |
| 1778018529 | 10° C | 93% | 1008.1 hPa | 0 mm | 0.89 m/s, 212° | - | - |
| 1778016731 | 10° C | 93% | 1008.1 hPa | 1.78 mm | 2.68 m/s, 277° | - | - |
| 1778014935 | 10° C | 93% | 1008.1 hPa | 1.78 mm | 0 m/s | - | - |
| 1778013129 | 10.56° C | 92% | 1008.3 hPa | 1.78 mm | 0 m/s | - | - |
| 1778011330 | 10.56° C | 92% | 1008.1 hPa | 1.78 mm | 1.79 m/s, 182° | - | - |
| 1778009529 | 10.56° C | 91% | 1008.1 hPa | 1.78 mm | 6.26 m/s, 269° | - | - |
| 1778007735 | 11.11° C | 90% | 1007.9 hPa | 1.52 mm | 6.26 m/s, 269° | - | - |
| 1778005932 | 12.78° C | 83% | 1007.5 hPa | 0.25 mm | 7.15 m/s, 277° | - | - |
| 1778004131 | 13.89° C | 82% | 1006.7 hPa | 0.25 mm | 4.92 m/s, 275° | - | - |
| 1778002330 | 14.44° C | 83% | 1006.4 hPa | 0.25 mm | 1.79 m/s, 250° | - | - |
| 1778000530 | 14.44° C | 85% | 1006.1 hPa | 0.25 mm | 3.13 m/s, 281° | - | - |
| 1777998731 | 14.44° C | 87% | 1005.9 hPa | 0.25 mm | 4.92 m/s, 251° | - | - |
| 1777995130 | 13.89° C | 87% | 1005.2 hPa | 0.25 mm | 2.68 m/s, 110° | - | - |
| 1777993336 | 14.44° C | 82% | 1006.2 hPa | 0 mm | 4.92 m/s, 283° | - | - |
| 1777991532 | 16.67° C | 66% | 1005.7 hPa | 0 mm | 3.13 m/s, 58° | - | - |
| 1777989730 | 17.78° C | 65% | 1005.6 hPa | 0 mm | 4.02 m/s, 246° | - | - |
| 1777987930 | 17.22° C | 65% | 1005.8 hPa | 0 mm | 0.45 m/s, 248° | - | - |
| 1777986130 | 16.67° C | 71% | 1006 hPa | 0 mm | 3.13 m/s, 284° | - | - |
| 1777984330 | 16.11° C | 74% | 1006.2 hPa | 0 mm | 1.79 m/s, 190° | - | - |
| 1777982530 | 14.44° C | 79% | 1006.2 hPa | 0 mm | 2.24 m/s, 180° | - | - |
| 1777980730 | 13.33° C | 81% | 1006.3 hPa | 0 mm | 2.24 m/s, 114° | - | - |
| 1777978931 | 13.33° C | 82% | 1006.6 hPa | 0 mm | 1.79 m/s, 266° | - | - |
* Rain since midnight (hover to see other rain measurements)
** Current wind speed in m/s (hover to see current wind gust speed)